sensor_id;sensor_type;location;lat;lon;timestamp;P1;durP1;ratioP1;P2;durP2;ratioP2
13321;SDS011;6730;46.248;6.930;2022-11-11T00:00:26;1.05;;;0.70;;
13321;SDS011;6730;46.248;6.930;2022-11-11T00:02:53;0.50;;;0.50;;
13321;SDS011;6730;46.248;6.930;2022-11-11T00:05:20;0.50;;;0.50;;
13321;SDS011;6730;46.248;6.930;2022-11-11T00:07:46;1.75;;;0.90;;
13321;SDS011;6730;46.248;6.930;2022-11-11T00:10:12;0.80;;;0.80;;
13321;SDS011;6730;46.248;6.930;2022-11-11T00:12:38;0.60;;;0.60;;
13321;SDS011;6730;46.248;6.930;2022-11-11T00:15:04;0.80;;;0.80;;
13321;SDS011;6730;46.248;6.930;2022-11-11T00:17:32;0.73;;;0.73;;
13321;SDS011;6730;46.248;6.930;2022-11-11T00:20:16;0.77;;;0.77;;
13321;SDS011;6730;46.248;6.930;2022-11-11T00:23:01;0.77;;;0.70;;
13321;SDS011;6730;46.248;6.930;2022-11-11T00:25:45;1.38;;;0.80;;
13321;SDS011;6730;46.248;6.930;2022-11-11T00:28:16;0.75;;;0.75;;
13321;SDS011;6730;46.248;6.930;2022-11-11T00:30:41;0.70;;;0.70;;
13321;SDS011;6730;46.248;6.930;2022-11-11T00:33:07;0.63;;;0.50;;
13321;SDS011;6730;46.248;6.930;2022-11-11T00:35:32;0.80;;;0.75;;
13321;SDS011;6730;46.248;6.930;2022-11-11T00:38:16;0.50;;;0.50;;
13321;SDS011;6730;46.248;6.930;2022-11-11T00:41:01;0.80;;;0.80;;
13321;SDS011;6730;46.248;6.930;2022-11-11T00:43:26;0.50;;;0.50;;
13321;SDS011;6730;46.248;6.930;2022-11-11T00:45:52;1.13;;;0.70;;
13321;SDS011;6730;46.248;6.930;2022-11-11T00:48:18;0.40;;;0.40;;
13321;SDS011;6730;46.248;6.930;2022-11-11T00:51:02;0.50;;;0.50;;
13321;SDS011;6730;46.248;6.930;2022-11-11T00:53:28;2.25;;;0.73;;
13321;SDS011;6730;46.248;6.930;2022-11-11T00:55:57;1.13;;;0.90;;
13321;SDS011;6730;46.248;6.930;2022-11-11T00:58:23;1.13;;;0.63;;
13321;SDS011;6730;46.248;6.930;2022-11-11T01:00:49;0.98;;;0.70;;
13321;SDS011;6730;46.248;6.930;2022-11-11T01:03:17;0.45;;;0.45;;
13321;SDS011;6730;46.248;6.930;2022-11-11T01:05:43;1.70;;;0.63;;
13321;SDS011;6730;46.248;6.930;2022-11-11T01:08:09;0.77;;;0.77;;
13321;SDS011;6730;46.248;6.930;2022-11-11T01:10:35;0.67;;;0.67;;
13321;SDS011;6730;46.248;6.930;2022-11-11T01:13:17;0.67;;;0.67;;
13321;SDS011;6730;46.248;6.930;2022-11-11T01:15:46;0.70;;;0.70;;
13321;SDS011;6730;46.248;6.930;2022-11-11T01:18:14;0.60;;;0.60;;
13321;SDS011;6730;46.248;6.930;2022-11-11T01:20:42;0.60;;;0.60;;
13321;SDS011;6730;46.248;6.930;2022-11-11T01:23:08;0.70;;;0.70;;
13321;SDS011;6730;46.248;6.930;2022-11-11T01:25:36;0.80;;;0.77;;
13321;SDS011;6730;46.248;6.930;2022-11-11T01:28:03;0.70;;;0.70;;
13321;SDS011;6730;46.248;6.930;2022-11-11T01:30:30;0.77;;;0.63;;
13321;SDS011;6730;46.248;6.930;2022-11-11T01:32:57;0.85;;;0.70;;
13321;SDS011;6730;46.248;6.930;2022-11-11T01:35:23;0.80;;;0.70;;
13321;SDS011;6730;46.248;6.930;2022-11-11T01:37:49;0.77;;;0.73;;
13321;SDS011;6730;46.248;6.930;2022-11-11T01:40:15;1.15;;;0.88;;
13321;SDS011;6730;46.248;6.930;2022-11-11T01:42:45;0.77;;;0.77;;
13321;SDS011;6730;46.248;6.930;2022-11-11T01:48:41;0.60;;;0.60;;
13321;SDS011;6730;46.248;6.930;2022-11-11T01:51:34;0.75;;;0.75;;
13321;SDS011;6730;46.248;6.930;2022-11-11T01:54:25;0.88;;;0.65;;
13321;SDS011;6730;46.248;6.930;2022-11-11T01:56:54;0.70;;;0.63;;
13321;SDS011;6730;46.248;6.930;2022-11-11T01:59:45;0.70;;;0.70;;
13321;SDS011;6730;46.248;6.930;2022-11-11T02:02:23;0.60;;;0.60;;
13321;SDS011;6730;46.248;6.930;2022-11-11T02:04:55;0.93;;;0.80;;
13321;SDS011;6730;46.248;6.930;2022-11-11T02:07:40;2.25;;;0.80;;
13321;SDS011;6730;46.248;6.930;2022-11-11T02:10:06;5.38;;;0.70;;
13321;SDS011;6730;46.248;6.930;2022-11-11T02:12:33;0.85;;;0.77;;
13321;SDS011;6730;46.248;6.930;2022-11-11T02:15:17;0.93;;;0.70;;
13321;SDS011;6730;46.248;6.930;2022-11-11T02:17:43;0.60;;;0.60;;
13321;SDS011;6730;46.248;6.930;2022-11-11T02:20:12;0.83;;;0.83;;
13321;SDS011;6730;46.248;6.930;2022-11-11T02:22:45;0.77;;;0.73;;
13321;SDS011;6730;46.248;6.930;2022-11-11T02:25:16;1.00;;;0.80;;
13321;SDS011;6730;46.248;6.930;2022-11-11T02:27:46;0.85;;;0.60;;
13321;SDS011;6730;46.248;6.930;2022-11-11T02:30:16;0.73;;;0.73;;
13321;SDS011;6730;46.248;6.930;2022-11-11T02:32:46;0.80;;;0.80;;
13321;SDS011;6730;46.248;6.930;2022-11-11T02:35:36;0.70;;;0.70;;
13321;SDS011;6730;46.248;6.930;2022-11-11T02:38:02;0.97;;;0.80;;
13321;SDS011;6730;46.248;6.930;2022-11-11T02:43:03;0.80;;;0.77;;
13321;SDS011;6730;46.248;6.930;2022-11-11T02:45:29;1.85;;;0.70;;
13321;SDS011;6730;46.248;6.930;2022-11-11T02:47:55;0.65;;;0.65;;
13321;SDS011;6730;46.248;6.930;2022-11-11T02:50:21;0.80;;;0.60;;
13321;SDS011;6730;46.248;6.930;2022-11-11T02:52:46;0.70;;;0.70;;
13321;SDS011;6730;46.248;6.930;2022-11-11T02:55:13;0.70;;;0.70;;
13321;SDS011;6730;46.248;6.930;2022-11-11T02:57:38;0.50;;;0.50;;
13321;SDS011;6730;46.248;6.930;2022-11-11T03:00:04;0.50;;;0.50;;
13321;SDS011;6730;46.248;6.930;2022-11-11T03:02:30;0.70;;;0.68;;
13321;SDS011;6730;46.248;6.930;2022-11-11T03:05:02;0.80;;;0.80;;
13321;SDS011;6730;46.248;6.930;2022-11-11T03:07:31;0.98;;;0.90;;
13321;SDS011;6730;46.248;6.930;2022-11-11T03:09:57;1.97;;;0.90;;
13321;SDS011;6730;46.248;6.930;2022-11-11T03:12:22;0.57;;;0.57;;
13321;SDS011;6730;46.248;6.930;2022-11-11T03:14:48;0.87;;;0.77;;
13321;SDS011;6730;46.248;6.930;2022-11-11T03:17:13;0.57;;;0.57;;
13321;SDS011;6730;46.248;6.930;2022-11-11T03:19:57;0.65;;;0.60;;
13321;SDS011;6730;46.248;6.930;2022-11-11T03:22:43;1.00;;;0.60;;
13321;SDS011;6730;46.248;6.930;2022-11-11T03:25:08;0.50;;;0.50;;
13321;SDS011;6730;46.248;6.930;2022-11-11T03:27:53;0.60;;;0.60;;
13321;SDS011;6730;46.248;6.930;2022-11-11T03:30:18;1.98;;;0.90;;
13321;SDS011;6730;46.248;6.930;2022-11-11T03:32:44;1.70;;;0.70;;
13321;SDS011;6730;46.248;6.930;2022-11-11T03:35:09;0.70;;;0.60;;
13321;SDS011;6730;46.248;6.930;2022-11-11T03:37:35;1.90;;;0.70;;
13321;SDS011;6730;46.248;6.930;2022-11-11T03:40:19;0.40;;;0.40;;
13321;SDS011;6730;46.248;6.930;2022-11-11T03:42:45;0.50;;;0.50;;
13321;SDS011;6730;46.248;6.930;2022-11-11T03:45:10;0.50;;;0.50;;
13321;SDS011;6730;46.248;6.930;2022-11-11T03:47:36;0.60;;;0.50;;
13321;SDS011;6730;46.248;6.930;2022-11-11T03:50:02;0.63;;;0.63;;
13321;SDS011;6730;46.248;6.930;2022-11-11T03:52:27;0.73;;;0.50;;
13321;SDS011;6730;46.248;6.930;2022-11-11T03:54:53;0.80;;;0.60;;
13321;SDS011;6730;46.248;6.930;2022-11-11T03:57:19;0.50;;;0.50;;
13321;SDS011;6730;46.248;6.930;2022-11-11T03:59:56;0.85;;;0.70;;
13321;SDS011;6730;46.248;6.930;2022-11-11T04:02:22;0.55;;;0.55;;
13321;SDS011;6730;46.248;6.930;2022-11-11T04:05:06;0.40;;;0.40;;
13321;SDS011;6730;46.248;6.930;2022-11-11T04:07:50;1.63;;;0.63;;
13321;SDS011;6730;46.248;6.930;2022-11-11T04:10:35;1.02;;;0.70;;
13321;SDS011;6730;46.248;6.930;2022-11-11T04:13:01;0.70;;;0.60;;
13321;SDS011;6730;46.248;6.930;2022-11-11T04:15:46;0.85;;;0.70;;
13321;SDS011;6730;46.248;6.930;2022-11-11T04:18:41;0.50;;;0.50;;
13321;SDS011;6730;46.248;6.930;2022-11-11T04:21:25;0.50;;;0.50;;
13321;SDS011;6730;46.248;6.930;2022-11-11T04:24:15;1.37;;;0.60;;
13321;SDS011;6730;46.248;6.930;2022-11-11T04:27:02;0.90;;;0.70;;
13321;SDS011;6730;46.248;6.930;2022-11-11T04:29:36;0.40;;;0.40;;
13321;SDS011;6730;46.248;6.930;2022-11-11T04:32:03;0.52;;;0.52;;
13321;SDS011;6730;46.248;6.930;2022-11-11T04:34:56;0.70;;;0.60;;
13321;SDS011;6730;46.248;6.930;2022-11-11T04:37:23;2.10;;;1.33;;
13321;SDS011;6730;46.248;6.930;2022-11-11T04:39:50;0.60;;;0.60;;
13321;SDS011;6730;46.248;6.930;2022-11-11T04:42:34;1.20;;;0.60;;
13321;SDS011;6730;46.248;6.930;2022-11-11T04:45:01;0.57;;;0.57;;
13321;SDS011;6730;46.248;6.930;2022-11-11T04:47:52;0.50;;;0.50;;
13321;SDS011;6730;46.248;6.930;2022-11-11T04:50:18;0.73;;;0.50;;
13321;SDS011;6730;46.248;6.930;2022-11-11T04:52:43;1.65;;;0.50;;
13321;SDS011;6730;46.248;6.930;2022-11-11T04:55:09;0.25;;;0.25;;
13321;SDS011;6730;46.248;6.930;2022-11-11T04:57:53;0.40;;;0.40;;
13321;SDS011;6730;46.248;6.930;2022-11-11T05:00:19;0.60;;;0.60;;
13321;SDS011;6730;46.248;6.930;2022-11-11T05:02:44;0.50;;;0.40;;
13321;SDS011;6730;46.248;6.930;2022-11-11T05:05:29;0.50;;;0.50;;
13321;SDS011;6730;46.248;6.930;2022-11-11T05:08:18;0.47;;;0.47;;
13321;SDS011;6730;46.248;6.930;2022-11-11T05:11:02;0.40;;;0.40;;
13321;SDS011;6730;46.248;6.930;2022-11-11T05:13:28;0.30;;;0.30;;
13321;SDS011;6730;46.248;6.930;2022-11-11T05:16:16;0.40;;;0.40;;
13321;SDS011;6730;46.248;6.930;2022-11-11T05:19:07;0.40;;;0.38;;
13321;SDS011;6730;46.248;6.930;2022-11-11T05:21:54;0.33;;;0.33;;
13321;SDS011;6730;46.248;6.930;2022-11-11T05:24:24;0.30;;;0.30;;
13321;SDS011;6730;46.248;6.930;2022-11-11T05:27:08;0.30;;;0.30;;
13321;SDS011;6730;46.248;6.930;2022-11-11T05:29:34;2.10;;;0.20;;
13321;SDS011;6730;46.248;6.930;2022-11-11T05:32:00;0.30;;;0.30;;
13321;SDS011;6730;46.248;6.930;2022-11-11T05:34:26;0.73;;;0.40;;
13321;SDS011;6730;46.248;6.930;2022-11-11T05:36:51;0.80;;;0.50;;
13321;SDS011;6730;46.248;6.930;2022-11-11T05:39:17;0.27;;;0.27;;
13321;SDS011;6730;46.248;6.930;2022-11-11T05:41:43;0.87;;;0.43;;
13321;SDS011;6730;46.248;6.930;2022-11-11T05:44:08;0.45;;;0.45;;
13321;SDS011;6730;46.248;6.930;2022-11-11T05:46:34;0.30;;;0.30;;
13321;SDS011;6730;46.248;6.930;2022-11-11T05:49:00;0.30;;;0.30;;
13321;SDS011;6730;46.248;6.930;2022-11-11T05:51:41;0.43;;;0.43;;
13321;SDS011;6730;46.248;6.930;2022-11-11T05:54:07;0.30;;;0.30;;
13321;SDS011;6730;46.248;6.930;2022-11-11T05:56:33;0.30;;;0.30;;
13321;SDS011;6730;46.248;6.930;2022-11-11T05:59:00;0.30;;;0.30;;
13321;SDS011;6730;46.248;6.930;2022-11-11T06:01:28;0.30;;;0.27;;
13321;SDS011;6730;46.248;6.930;2022-11-11T06:03:53;0.33;;;0.33;;
13321;SDS011;6730;46.248;6.930;2022-11-11T06:06:19;0.27;;;0.27;;
13321;SDS011;6730;46.248;6.930;2022-11-11T06:08:45;1.13;;;0.50;;
13321;SDS011;6730;46.248;6.930;2022-11-11T06:11:11;0.50;;;0.50;;
13321;SDS011;6730;46.248;6.930;2022-11-11T06:13:36;0.40;;;0.40;;
13321;SDS011;6730;46.248;6.930;2022-11-11T06:16:02;0.20;;;0.20;;
13321;SDS011;6730;46.248;6.930;2022-11-11T06:18:28;0.33;;;0.33;;
13321;SDS011;6730;46.248;6.930;2022-11-11T06:20:55;0.23;;;0.23;;
13321;SDS011;6730;46.248;6.930;2022-11-11T06:23:21;0.57;;;0.30;;
13321;SDS011;6730;46.248;6.930;2022-11-11T06:25:48;0.35;;;0.35;;
13321;SDS011;6730;46.248;6.930;2022-11-11T06:28:33;0.30;;;0.30;;
13321;SDS011;6730;46.248;6.930;2022-11-11T06:30:59;0.33;;;0.30;;
13321;SDS011;6730;46.248;6.930;2022-11-11T06:33:25;0.23;;;0.23;;
13321;SDS011;6730;46.248;6.930;2022-11-11T06:35:51;2.83;;;0.50;;
13321;SDS011;6730;46.248;6.930;2022-11-11T06:38:17;0.30;;;0.30;;
13321;SDS011;6730;46.248;6.930;2022-11-11T06:40:44;0.25;;;0.25;;
13321;SDS011;6730;46.248;6.930;2022-11-11T06:43:09;0.30;;;0.30;;
13321;SDS011;6730;46.248;6.930;2022-11-11T06:45:36;0.50;;;0.30;;
13321;SDS011;6730;46.248;6.930;2022-11-11T06:48:15;0.57;;;0.47;;
13321;SDS011;6730;46.248;6.930;2022-11-11T06:50:41;2.58;;;0.45;;
13321;SDS011;6730;46.248;6.930;2022-11-11T06:53:08;0.63;;;0.50;;
13321;SDS011;6730;46.248;6.930;2022-11-11T06:55:36;0.35;;;0.35;;
13321;SDS011;6730;46.248;6.930;2022-11-11T06:58:09;0.30;;;0.30;;
13321;SDS011;6730;46.248;6.930;2022-11-11T07:00:36;1.50;;;0.38;;
13321;SDS011;6730;46.248;6.930;2022-11-11T07:03:04;1.30;;;0.40;;
13321;SDS011;6730;46.248;6.930;2022-11-11T07:05:31;1.47;;;0.40;;
13321;SDS011;6730;46.248;6.930;2022-11-11T07:08:00;0.28;;;0.28;;
13321;SDS011;6730;46.248;6.930;2022-11-11T07:10:30;0.32;;;0.32;;
13321;SDS011;6730;46.248;6.930;2022-11-11T07:12:57;0.43;;;0.43;;
13321;SDS011;6730;46.248;6.930;2022-11-11T07:15:23;0.47;;;0.47;;
13321;SDS011;6730;46.248;6.930;2022-11-11T07:17:49;0.60;;;0.60;;
13321;SDS011;6730;46.248;6.930;2022-11-11T07:20:15;0.70;;;0.65;;
13321;SDS011;6730;46.248;6.930;2022-11-11T07:22:41;0.52;;;0.52;;
13321;SDS011;6730;46.248;6.930;2022-11-11T07:25:07;0.50;;;0.50;;
13321;SDS011;6730;46.248;6.930;2022-11-11T07:27:36;0.50;;;0.50;;
13321;SDS011;6730;46.248;6.930;2022-11-11T07:30:03;0.50;;;0.50;;
13321;SDS011;6730;46.248;6.930;2022-11-11T07:32:33;0.77;;;0.52;;
13321;SDS011;6730;46.248;6.930;2022-11-11T07:34:59;0.90;;;0.70;;
13321;SDS011;6730;46.248;6.930;2022-11-11T07:37:24;0.75;;;0.60;;
13321;SDS011;6730;46.248;6.930;2022-11-11T07:39:50;0.60;;;0.60;;
13321;SDS011;6730;46.248;6.930;2022-11-11T07:42:16;1.00;;;0.75;;
13321;SDS011;6730;46.248;6.930;2022-11-11T07:44:42;1.17;;;0.80;;
13321;SDS011;6730;46.248;6.930;2022-11-11T07:47:07;3.40;;;1.00;;
13321;SDS011;6730;46.248;6.930;2022-11-11T07:49:33;1.17;;;0.93;;
13321;SDS011;6730;46.248;6.930;2022-11-11T07:51:59;0.80;;;0.80;;
13321;SDS011;6730;46.248;6.930;2022-11-11T07:54:24;1.02;;;0.93;;
13321;SDS011;6730;46.248;6.930;2022-11-11T07:56:50;1.15;;;1.05;;
13321;SDS011;6730;46.248;6.930;2022-11-11T07:59:16;1.10;;;1.00;;
13321;SDS011;6730;46.248;6.930;2022-11-11T08:01:42;1.45;;;0.80;;
13321;SDS011;6730;46.248;6.930;2022-11-11T08:04:07;1.00;;;0.90;;
13321;SDS011;6730;46.248;6.930;2022-11-11T08:06:33;1.80;;;0.93;;
13321;SDS011;6730;46.248;6.930;2022-11-11T08:08:59;1.55;;;0.98;;
13321;SDS011;6730;46.248;6.930;2022-11-11T08:11:24;2.33;;;0.90;;
13321;SDS011;6730;46.248;6.930;2022-11-11T08:14:08;3.85;;;0.90;;
13321;SDS011;6730;46.248;6.930;2022-11-11T08:16:34;1.73;;;1.15;;
13321;SDS011;6730;46.248;6.930;2022-11-11T08:19:00;1.52;;;0.98;;
13321;SDS011;6730;46.248;6.930;2022-11-11T08:21:25;1.40;;;1.10;;
13321;SDS011;6730;46.248;6.930;2022-11-11T08:23:52;1.48;;;0.80;;
13321;SDS011;6730;46.248;6.930;2022-11-11T08:26:19;2.08;;;1.10;;
13321;SDS011;6730;46.248;6.930;2022-11-11T08:28:46;1.30;;;1.17;;
13321;SDS011;6730;46.248;6.930;2022-11-11T08:31:12;1.23;;;1.00;;
13321;SDS011;6730;46.248;6.930;2022-11-11T08:33:37;1.00;;;0.90;;
13321;SDS011;6730;46.248;6.930;2022-11-11T08:36:03;1.63;;;1.02;;
13321;SDS011;6730;46.248;6.930;2022-11-11T08:38:30;1.13;;;1.00;;
13321;SDS011;6730;46.248;6.930;2022-11-11T08:40:59;1.02;;;0.93;;
13321;SDS011;6730;46.248;6.930;2022-11-11T08:43:26;1.58;;;1.10;;
13321;SDS011;6730;46.248;6.930;2022-11-11T08:45:52;1.38;;;1.27;;
13321;SDS011;6730;46.248;6.930;2022-11-11T08:48:18;2.88;;;1.48;;
13321;SDS011;6730;46.248;6.930;2022-11-11T08:50:44;2.70;;;1.58;;
13321;SDS011;6730;46.248;6.930;2022-11-11T08:53:10;2.10;;;1.50;;
13321;SDS011;6730;46.248;6.930;2022-11-11T08:55:36;1.65;;;1.40;;
13321;SDS011;6730;46.248;6.930;2022-11-11T08:58:04;1.33;;;1.23;;
13321;SDS011;6730;46.248;6.930;2022-11-11T09:00:31;2.45;;;0.95;;
13321;SDS011;6730;46.248;6.930;2022-11-11T09:03:01;1.20;;;1.10;;
13321;SDS011;6730;46.248;6.930;2022-11-11T09:05:31;1.13;;;1.02;;
13321;SDS011;6730;46.248;6.930;2022-11-11T09:08:01;2.45;;;1.45;;
13321;SDS011;6730;46.248;6.930;2022-11-11T09:10:30;3.13;;;2.85;;
13321;SDS011;6730;46.248;6.930;2022-11-11T09:12:57;1.25;;;1.10;;
13321;SDS011;6730;46.248;6.930;2022-11-11T09:15:23;2.17;;;1.60;;
13321;SDS011;6730;46.248;6.930;2022-11-11T09:17:50;5.30;;;1.70;;
13321;SDS011;6730;46.248;6.930;2022-11-11T09:20:16;2.45;;;1.38;;
13321;SDS011;6730;46.248;6.930;2022-11-11T09:22:43;1.63;;;1.33;;
13321;SDS011;6730;46.248;6.930;2022-11-11T09:25:10;1.70;;;1.23;;
13321;SDS011;6730;46.248;6.930;2022-11-11T09:27:35;3.72;;;1.42;;
13321;SDS011;6730;46.248;6.930;2022-11-11T09:30:01;4.53;;;1.48;;
13321;SDS011;6730;46.248;6.930;2022-11-11T09:32:28;1.40;;;1.30;;
13321;SDS011;6730;46.248;6.930;2022-11-11T09:34:54;1.23;;;1.13;;
13321;SDS011;6730;46.248;6.930;2022-11-11T09:37:20;2.20;;;1.30;;
13321;SDS011;6730;46.248;6.930;2022-11-11T09:39:46;1.73;;;1.35;;
13321;SDS011;6730;46.248;6.930;2022-11-11T09:50:26;1.73;;;1.35;;
13321;SDS011;6730;46.248;6.930;2022-11-11T09:58:33;2.30;;;1.20;;
13321;SDS011;6730;46.248;6.930;2022-11-11T10:01:09;1.60;;;1.10;;
13321;SDS011;6730;46.248;6.930;2022-11-11T10:03:40;2.85;;;1.63;;
13321;SDS011;6730;46.248;6.930;2022-11-11T10:06:26;2.05;;;1.50;;
13321;SDS011;6730;46.248;6.930;2022-11-11T10:08:57;1.90;;;1.60;;
13321;SDS011;6730;46.248;6.930;2022-11-11T10:11:48;1.73;;;1.38;;
13321;SDS011;6730;46.248;6.930;2022-11-11T10:14:21;2.10;;;1.50;;
13321;SDS011;6730;46.248;6.930;2022-11-11T10:16:51;4.93;;;1.58;;
13321;SDS011;6730;46.248;6.930;2022-11-11T10:19:45;4.63;;;1.67;;
13321;SDS011;6730;46.248;6.930;2022-11-11T10:22:19;1.88;;;1.35;;
13321;SDS011;6730;46.248;6.930;2022-11-11T10:25:24;2.40;;;1.30;;
13321;SDS011;6730;46.248;6.930;2022-11-11T10:27:45;2.53;;;1.60;;
13321;SDS011;6730;46.248;6.930;2022-11-11T10:30:15;3.70;;;1.90;;
13321;SDS011;6730;46.248;6.930;2022-11-11T10:32:53;1.63;;;1.52;;
13321;SDS011;6730;46.248;6.930;2022-11-11T10:35:31;2.47;;;1.60;;
13321;SDS011;6730;46.248;6.930;2022-11-11T10:38:00;5.60;;;2.75;;
13321;SDS011;6730;46.248;6.930;2022-11-11T10:40:51;2.20;;;1.85;;
13321;SDS011;6730;46.248;6.930;2022-11-11T10:46:08;5.28;;;1.83;;
13321;SDS011;6730;46.248;6.930;2022-11-11T10:51:41;4.18;;;2.05;;
13321;SDS011;6730;46.248;6.930;2022-11-11T10:54:25;2.15;;;1.80;;
13321;SDS011;6730;46.248;6.930;2022-11-11T10:59:56;2.72;;;1.60;;
13321;SDS011;6730;46.248;6.930;2022-11-11T11:02:29;2.90;;;1.90;;
13321;SDS011;6730;46.248;6.930;2022-11-11T11:05:10;1.92;;;1.70;;
13321;SDS011;6730;46.248;6.930;2022-11-11T11:07:41;2.05;;;1.30;;
13321;SDS011;6730;46.248;6.930;2022-11-11T11:10:14;2.10;;;1.70;;
13321;SDS011;6730;46.248;6.930;2022-11-11T11:13:05;2.08;;;1.67;;
13321;SDS011;6730;46.248;6.930;2022-11-11T11:15:41;5.13;;;1.90;;
13321;SDS011;6730;46.248;6.930;2022-11-11T11:18:13;1.40;;;1.30;;
13321;SDS011;6730;46.248;6.930;2022-11-11T11:20:59;3.88;;;1.80;;
13321;SDS011;6730;46.248;6.930;2022-11-11T11:23:36;4.57;;;1.60;;
13321;SDS011;6730;46.248;6.930;2022-11-11T11:26:02;1.63;;;1.42;;
13321;SDS011;6730;46.248;6.930;2022-11-11T11:28:29;1.90;;;1.60;;
13321;SDS011;6730;46.248;6.930;2022-11-11T11:30:58;3.05;;;1.50;;
13321;SDS011;6730;46.248;6.930;2022-11-11T11:33:26;3.20;;;1.58;;
13321;SDS011;6730;46.248;6.930;2022-11-11T11:35:51;2.25;;;1.40;;
13321;SDS011;6730;46.248;6.930;2022-11-11T11:38:17;1.70;;;1.20;;
13321;SDS011;6730;46.248;6.930;2022-11-11T11:45:58;1.48;;;1.38;;
13321;SDS011;6730;46.248;6.930;2022-11-11T11:51:10;4.32;;;1.70;;
13321;SDS011;6730;46.248;6.930;2022-11-11T11:56:27;2.30;;;1.45;;
13321;SDS011;6730;46.248;6.930;2022-11-11T11:59:08;2.80;;;1.83;;
13321;SDS011;6730;46.248;6.930;2022-11-11T12:04:57;1.75;;;1.63;;
13321;SDS011;6730;46.248;6.930;2022-11-11T12:10:49;2.85;;;1.83;;
13321;SDS011;6730;46.248;6.930;2022-11-11T12:15:50;3.25;;;1.55;;
13321;SDS011;6730;46.248;6.930;2022-11-11T12:21:14;2.00;;;1.60;;
13321;SDS011;6730;46.248;6.930;2022-11-11T12:23:57;6.65;;;1.98;;
13321;SDS011;6730;46.248;6.930;2022-11-11T12:35:24;1.92;;;1.50;;
13321;SDS011;6730;46.248;6.930;2022-11-11T12:39:00;4.32;;;1.50;;
13321;SDS011;6730;46.248;6.930;2022-11-11T12:41:19;2.30;;;1.58;;
13321;SDS011;6730;46.248;6.930;2022-11-11T12:44:01;3.70;;;1.30;;
13321;SDS011;6730;46.248;6.930;2022-11-11T12:49:42;1.73;;;1.30;;
13321;SDS011;6730;46.248;6.930;2022-11-11T12:55:26;2.17;;;1.52;;
13321;SDS011;6730;46.248;6.930;2022-11-11T12:58:06;2.03;;;1.30;;
13321;SDS011;6730;46.248;6.930;2022-11-11T13:15:04;1.73;;;1.30;;
13321;SDS011;6730;46.248;6.930;2022-11-11T13:17:29;2.05;;;1.20;;
13321;SDS011;6730;46.248;6.930;2022-11-11T13:19:56;2.25;;;1.40;;
13321;SDS011;6730;46.248;6.930;2022-11-11T13:22:37;3.50;;;1.63;;
13321;SDS011;6730;46.248;6.930;2022-11-11T13:25:03;2.60;;;1.70;;
13321;SDS011;6730;46.248;6.930;2022-11-11T13:27:33;1.50;;;1.40;;
13321;SDS011;6730;46.248;6.930;2022-11-11T13:30:05;2.15;;;1.48;;
13321;SDS011;6730;46.248;6.930;2022-11-11T13:32:39;2.70;;;1.10;;
13321;SDS011;6730;46.248;6.930;2022-11-11T13:35:28;1.35;;;1.13;;
13321;SDS011;6730;46.248;6.930;2022-11-11T13:38:04;3.03;;;1.30;;
13321;SDS011;6730;46.248;6.930;2022-11-11T13:40:33;1.42;;;1.10;;
13321;SDS011;6730;46.248;6.930;2022-11-11T13:43:00;1.88;;;1.10;;
13321;SDS011;6730;46.248;6.930;2022-11-11T13:45:28;2.42;;;1.40;;
13321;SDS011;6730;46.248;6.930;2022-11-11T13:47:59;2.97;;;1.77;;
13321;SDS011;6730;46.248;6.930;2022-11-11T13:50:30;3.53;;;1.75;;
13321;SDS011;6730;46.248;6.930;2022-11-11T13:53:12;2.92;;;1.70;;
13321;SDS011;6730;46.248;6.930;2022-11-11T13:55:51;3.78;;;1.75;;
13321;SDS011;6730;46.248;6.930;2022-11-11T13:58:28;3.83;;;1.60;;
13321;SDS011;6730;46.248;6.930;2022-11-11T14:01:04;2.15;;;1.95;;
13321;SDS011;6730;46.248;6.930;2022-11-11T14:03:36;2.30;;;2.10;;
13321;SDS011;6730;46.248;6.930;2022-11-11T14:06:28;3.33;;;2.20;;
13321;SDS011;6730;46.248;6.930;2022-11-11T14:09:00;2.47;;;2.28;;
13321;SDS011;6730;46.248;6.930;2022-11-11T14:11:31;2.33;;;2.13;;
13321;SDS011;6730;46.248;6.930;2022-11-11T14:14:45;2.63;;;2.30;;
13321;SDS011;6730;46.248;6.930;2022-11-11T14:21:46;5.47;;;2.72;;
13321;SDS011;6730;46.248;6.930;2022-11-11T14:24:59;5.22;;;3.13;;
13321;SDS011;6730;46.248;6.930;2022-11-11T14:27:03;4.50;;;3.53;;
13321;SDS011;6730;46.248;6.930;2022-11-11T14:29:47;3.33;;;2.83;;
13321;SDS011;6730;46.248;6.930;2022-11-11T14:32:28;5.28;;;3.10;;
13321;SDS011;6730;46.248;6.930;2022-11-11T14:40:38;5.28;;;3.40;;
13321;SDS011;6730;46.248;6.930;2022-11-11T14:46:00;3.80;;;3.15;;
13321;SDS011;6730;46.248;6.930;2022-11-11T14:51:37;4.15;;;3.35;;
13321;SDS011;6730;46.248;6.930;2022-11-11T14:54:15;2.67;;;1.90;;
13321;SDS011;6730;46.248;6.930;2022-11-11T14:56:52;4.65;;;2.90;;
13321;SDS011;6730;46.248;6.930;2022-11-11T14:59:41;3.22;;;1.70;;
13321;SDS011;6730;46.248;6.930;2022-11-11T15:02:10;4.93;;;1.92;;
13321;SDS011;6730;46.248;6.930;2022-11-11T15:04:45;3.50;;;1.88;;
13321;SDS011;6730;46.248;6.930;2022-11-11T15:07:15;3.45;;;2.13;;
13321;SDS011;6730;46.248;6.930;2022-11-11T15:12:47;3.00;;;1.83;;
13321;SDS011;6730;46.248;6.930;2022-11-11T15:15:25;3.78;;;1.40;;
13321;SDS011;6730;46.248;6.930;2022-11-11T15:18:03;1.45;;;1.30;;
13321;SDS011;6730;46.248;6.930;2022-11-11T15:20:52;2.22;;;1.23;;
13321;SDS011;6730;46.248;6.930;2022-11-11T15:23:32;3.70;;;1.30;;
13321;SDS011;6730;46.248;6.930;2022-11-11T15:26:11;4.70;;;1.33;;
13321;SDS011;6730;46.248;6.930;2022-11-11T15:37:17;1.58;;;1.48;;
13321;SDS011;6730;46.248;6.930;2022-11-11T15:39:46;1.42;;;1.30;;
13321;SDS011;6730;46.248;6.930;2022-11-11T15:42:18;1.15;;;1.05;;
13321;SDS011;6730;46.248;6.930;2022-11-11T15:44:52;2.13;;;1.20;;
13321;SDS011;6730;46.248;6.930;2022-11-11T15:47:20;1.70;;;1.15;;
13321;SDS011;6730;46.248;6.930;2022-11-11T15:49:49;3.00;;;1.48;;
13321;SDS011;6730;46.248;6.930;2022-11-11T15:54:50;1.45;;;1.35;;
13321;SDS011;6730;46.248;6.930;2022-11-11T15:57:30;1.55;;;1.20;;
13321;SDS011;6730;46.248;6.930;2022-11-11T15:59:57;2.17;;;1.50;;
13321;SDS011;6730;46.248;6.930;2022-11-11T16:02:28;1.70;;;1.27;;
13321;SDS011;6730;46.248;6.930;2022-11-11T16:04:59;1.70;;;1.60;;
13321;SDS011;6730;46.248;6.930;2022-11-11T16:07:41;3.00;;;1.30;;
13321;SDS011;6730;46.248;6.930;2022-11-11T16:10:09;2.78;;;1.88;;
13321;SDS011;6730;46.248;6.930;2022-11-11T16:12:44;2.33;;;1.83;;
13321;SDS011;6730;46.248;6.930;2022-11-11T16:15:15;1.95;;;1.70;;
13321;SDS011;6730;46.248;6.930;2022-11-11T16:17:48;2.40;;;2.20;;
13321;SDS011;6730;46.248;6.930;2022-11-11T16:20:19;6.32;;;2.30;;
13321;SDS011;6730;46.248;6.930;2022-11-11T16:22:49;2.30;;;2.08;;
13321;SDS011;6730;46.248;6.930;2022-11-11T16:25:20;3.85;;;1.80;;
13321;SDS011;6730;46.248;6.930;2022-11-11T16:27:47;4.05;;;2.15;;
13321;SDS011;6730;46.248;6.930;2022-11-11T16:30:27;2.10;;;1.80;;
13321;SDS011;6730;46.248;6.930;2022-11-11T16:32:56;2.33;;;1.70;;
13321;SDS011;6730;46.248;6.930;2022-11-11T16:35:40;2.50;;;1.83;;
13321;SDS011;6730;46.248;6.930;2022-11-11T16:38:06;1.75;;;1.30;;
13321;SDS011;6730;46.248;6.930;2022-11-11T16:51:23;2.00;;;1.50;;
13321;SDS011;6730;46.248;6.930;2022-11-11T16:56:41;1.60;;;1.45;;
13321;SDS011;6730;46.248;6.930;2022-11-11T16:59:14;2.35;;;1.55;;
13321;SDS011;6730;46.248;6.930;2022-11-11T17:01:45;2.50;;;1.70;;
13321;SDS011;6730;46.248;6.930;2022-11-11T17:04:12;2.75;;;1.85;;
13321;SDS011;6730;46.248;6.930;2022-11-11T17:12:04;2.53;;;2.10;;
13321;SDS011;6730;46.248;6.930;2022-11-11T17:14:32;4.78;;;2.10;;
13321;SDS011;6730;46.248;6.930;2022-11-11T17:17:02;2.63;;;1.63;;
13321;SDS011;6730;46.248;6.930;2022-11-11T17:19:30;2.00;;;1.67;;
13321;SDS011;6730;46.248;6.930;2022-11-11T17:22:04;2.45;;;1.60;;
13321;SDS011;6730;46.248;6.930;2022-11-11T17:24:31;1.42;;;1.27;;
13321;SDS011;6730;46.248;6.930;2022-11-11T17:26:56;1.50;;;1.30;;
13321;SDS011;6730;46.248;6.930;2022-11-11T17:29:22;4.32;;;1.33;;
13321;SDS011;6730;46.248;6.930;2022-11-11T17:31:48;1.00;;;0.90;;
13321;SDS011;6730;46.248;6.930;2022-11-11T17:34:13;2.00;;;1.20;;
13321;SDS011;6730;46.248;6.930;2022-11-11T17:36:39;1.83;;;1.10;;